Time;durP1;ratioP1;P1;durP2;ratioP2;P2;SDS_P1;SDS_P2;PMS_P1;PMS_P2;Temp;Humidity;BMP_temperature;BMP_pressure;BME280_temperature;BME280_humidity;BME280_pressure;Samples;Min_cycle;Max_cycle;Signal;HPM_P1;HPM_P2
2023/09/29 00:03:36;;;;;;;7.07;3.60;;;;;;;18.03;75.51;99340.53;7255192;40;20257;31
2023/09/29 00:14:17;;;;;;;5.47;3.40;;;;;;;17.96;76.21;99349.78;7281776;39;20278;31
2023/09/29 00:24:43;;;;;;;6.15;3.50;;;;;;;18.17;75.67;99343.25;7307081;39;20264;31
2023/09/29 00:30:20;;;;;;;5.50;3.50;;;;;;;18.24;75.94;99333.19;7318733;39;20360;31
2023/09/29 00:40:46;;;;;;;6.03;3.40;;;;;;;18.37;75.27;99328.53;7317953;39;20283;31
2023/09/29 00:51:26;;;;;;;5.20;3.60;;;;;;;18.03;75.94;99320.63;7305743;39;20671;31
2023/09/29 00:57:11;;;;;;;;;;;;;;;;;;;;;
2023/09/29 01:02:38;;;;;;;6.33;3.73;;;;;;;18.00;75.39;99326.47;7258199;40;20452;31
2023/09/29 01:08:14;;;;;;;4.60;3.30;;;;;;;18.01;75.56;99325.44;7266717;40;20243;31
2023/09/29 01:13:51;;;;;;;6.47;3.12;;;;;;;18.03;74.91;99315.97;7256383;40;20374;31
2023/09/29 01:25:03;;;;;;;9.00;3.30;;;;;;;18.01;75.11;99323.56;7195560;40;20273;31
2023/09/29 01:30:37;;;;;;;5.60;3.15;;;;;;;17.82;74.93;99324.41;7298986;39;20244;31
2023/09/29 01:35:58;;;;;;;7.60;3.70;;;;;;;17.77;75.55;99326.91;7266756;40;20291;31
2023/09/29 01:41:34;;;;;;;5.43;3.23;;;;;;;17.75;76.02;99315.37;7305499;39;20238;31
2023/09/29 01:46:55;;;;;;;7.80;3.90;;;;;;;17.82;75.42;99318.94;7292835;40;20352;31
2023/09/29 01:52:29;;;;;;;6.97;4.37;;;;;;;17.75;75.94;99312.66;7248603;40;20318;31
2023/09/29 01:58:06;;;;;;;7.10;4.00;;;;;;;17.62;76.72;99320.84;7189621;40;20279;31
2023/09/29 02:03:41;;;;;;;7.25;4.20;;;;;;;17.64;76.70;99316.00;7211447;40;20277;31
2023/09/29 02:09:21;;;;;;;6.93;3.77;;;;;;;17.66;76.82;99303.00;7227432;40;20253;31
2023/09/29 02:15:00;;;;;;;7.60;4.10;;;;;;;17.78;76.40;99300.47;7200149;40;20481;31
2023/09/29 02:20:36;;;;;;;5.20;3.30;;;;;;;17.80;76.43;99287.50;7217328;40;20285;31
2023/09/29 02:31:27;;;;;;;4.65;3.35;;;;;;;17.79;77.19;99304.91;7267917;40;20249;31
2023/09/29 02:42:08;;;;;;;9.27;3.60;;;;;;;17.91;77.29;99305.94;7219070;40;20343;31
2023/09/29 02:47:41;;;;;;;8.30;3.50;;;;;;;18.01;76.95;99301.72;7004361;40;21194;31
2023/09/29 02:53:15;;;;;;;4.70;3.17;;;;;;;18.14;76.39;99310.94;7195461;40;20513;31
2023/09/29 02:58:34;;;;;;;6.10;3.55;;;;;;;18.07;77.27;99310.13;7220304;40;20384;31
2023/09/29 03:04:10;;;;;;;4.70;3.50;;;;;;;18.02;77.53;99308.88;7275371;40;20608;31
2023/09/29 03:09:33;;;;;;;5.25;3.90;;;;;;;18.10;77.53;99305.06;7258357;40;20518;31
2023/09/29 03:14:52;;;;;;;5.95;3.60;;;;;;;18.07;77.79;99307.41;7304104;39;20341;31
2023/09/29 03:20:29;;;;;;;4.65;3.50;;;;;;;18.07;77.87;99297.31;7318815;39;20369;31
2023/09/29 03:25:50;;;;;;;8.57;3.60;;;;;;;18.19;77.65;99306.53;7229796;40;20302;31
2023/09/29 03:31:26;;;;;;;5.87;3.50;;;;;;;18.15;78.23;99297.09;7321815;39;20256;31
2023/09/29 03:42:06;;;;;;;7.40;3.60;;;;;;;18.24;78.22;99301.28;7216425;40;20413;31
2023/09/29 03:52:46;;;;;;;5.10;3.50;;;;;;;18.20;78.15;99301.91;7245159;40;20751;31
2023/09/29 04:03:27;;;;;;;5.86;3.44;;;;;;;18.17;78.43;99324.16;7298456;40;20268;31
2023/09/29 04:08:47;;;;;;;5.20;3.80;;;;;;;18.14;77.94;99325.44;7262350;40;20240;31
2023/09/29 04:14:23;;;;;;;6.03;3.77;;;;;;;18.11;78.53;99325.03;7292854;39;21075;31
2023/09/29 04:20:02;;;;;;;5.13;3.43;;;;;;;18.07;79.58;99329.22;7278375;40;20589;31
2023/09/29 04:30:40;;;;;;;5.17;3.40;;;;;;;18.05;79.49;99334.03;7274798;39;21441;31
2023/09/29 04:41:18;;;;;;;7.43;4.32;;;;;;;18.09;79.76;99332.56;7292001;39;20321;31
2023/09/29 04:46:39;;;;;;;4.93;4.23;;;;;;;18.13;79.81;99331.09;7259275;39;20346;31
2023/09/29 04:52:14;;;;;;;6.10;3.95;;;;;;;18.00;79.95;99327.31;7266974;39;20310;31
2023/09/29 04:57:52;;;;;;;5.90;4.33;;;;;;;18.02;80.39;99329.84;7277232;40;20354;31
2023/09/29 05:03:10;;;;;;;5.55;4.00;;;;;;;18.07;79.89;99327.34;7293739;39;20500;31
2023/09/29 05:08:43;;;;;;;5.00;3.90;;;;;;;18.13;80.16;99325.63;7298623;39;20378;31
2023/09/29 05:14:20;;;;;;;5.70;4.17;;;;;;;18.12;79.71;99326.69;7247906;40;20245;31
2023/09/29 05:19:55;;;;;;;6.40;4.28;;;;;;;18.11;80.19;99325.03;7215258;40;20254;31
2023/09/29 05:25:26;;;;;;;5.70;3.80;;;;;;;18.12;79.39;99335.72;7182928;40;20260;31
2023/09/29 05:31:03;;;;;;;7.90;4.20;;;;;;;18.08;79.75;99339.09;7179538;40;20253;31
2023/09/29 05:36:38;;;;;;;6.85;4.10;;;;;;;18.03;80.05;99348.72;7208042;40;20348;31
2023/09/29 05:42:13;;;;;;;5.20;4.10;;;;;;;18.08;80.29;99350.00;7212675;40;20246;31
2023/09/29 05:47:47;;;;;;;6.67;4.50;;;;;;;18.05;80.20;99350.41;7208802;40;20388;31
2023/09/29 05:53:19;;;;;;;6.45;4.50;;;;;;;18.09;80.10;99347.03;7184927;40;20247;31
2023/09/29 05:59:06;;;;;;;5.85;4.50;;;;;;;18.12;79.79;99346.66;7199040;40;20413;31
2023/09/29 06:04:43;;;;;;;8.73;4.50;;;;;;;18.16;79.84;99357.97;7157602;40;20445;31
2023/09/29 06:10:18;;;;;;;6.80;4.80;;;;;;;18.18;79.18;99356.69;7195280;40;20258;31
2023/09/29 06:15:39;;;;;;;7.70;4.23;;;;;;;18.25;79.13;99351.25;7199821;40;20238;31
2023/09/29 06:21:18;;;;;;;6.67;4.37;;;;;;;18.22;79.48;99346.19;7267192;39;20388;31
2023/09/29 06:26:39;;;;;;;6.70;4.60;;;;;;;18.29;79.36;99358.78;7255507;40;20478;31
2023/09/29 06:32:00;;;;;;;5.80;4.60;;;;;;;18.31;79.41;99358.56;7272221;40;20237;31
2023/09/29 06:37:36;;;;;;;6.78;4.47;;;;;;;18.30;79.20;99359.59;7309675;39;21889;31
2023/09/29 06:43:11;;;;;;;7.43;5.00;;;;;;;18.34;79.68;99375.34;7304940;39;20325;31
2023/09/29 06:53:50;;;;;;;7.57;4.27;;;;;;;18.56;80.04;99377.88;7296085;40;21461;31
2023/09/29 07:04:30;;;;;;;7.35;4.75;;;;;;;18.72;79.39;99378.25;7350363;39;20279;31
2023/09/29 07:15:10;;;;;;;9.90;5.00;;;;;;;18.99;79.21;99356.31;7266875;40;20268;31
2023/09/29 07:25:49;;;;;;;11.10;4.80;;;;;;;19.14;79.04;99359.59;7280086;39;20278;31
2023/09/29 07:31:35;;;;;;;5.50;4.40;;;;;;;19.24;79.18;99352.59;7157261;40;20284;31
2023/09/29 07:36:57;;;;;;;6.97;4.50;;;;;;;19.28;78.49;99361.19;7268102;40;20346;31
2023/09/29 07:42:29;;;;;;;6.03;4.13;;;;;;;19.24;79.44;99357.22;7241152;40;20257;31
2023/09/29 07:53:17;;;;;;;9.88;4.22;;;;;;;19.60;77.53;99362.94;7263827;39;20295;31
2023/09/29 07:58:39;;;;;;;4.70;3.80;;;;;;;19.81;77.45;99356.25;7246843;40;20237;31
2023/09/29 08:04:20;;;;;;;6.17;3.77;;;;;;;19.94;77.19;99358.03;7270704;40;20300;31
2023/09/29 08:09:42;;;;;;;5.57;3.50;;;;;;;20.12;75.57;99366.31;7262571;40;20245;31
2023/09/29 08:15:21;;;;;;;4.68;3.70;;;;;;;20.30;75.73;99362.81;7305771;39;20339;31
2023/09/29 08:20:53;;;;;;;6.32;3.78;;;;;;;20.46;74.94;99368.53;7298483;40;21452;31
2023/09/29 08:26:14;;;;;;;5.60;3.40;;;;;;;20.64;72.71;99382.25;7228716;40;20789;31
2023/09/29 08:31:34;;;;;;;8.70;3.74;;;;;;;20.82;72.17;99386.91;7246707;40;20260;31
2023/09/29 08:37:11;;;;;;;5.85;3.65;;;;;;;20.97;72.33;99384.63;7244570;40;20268;31
2023/09/29 08:42:45;;;;;;;7.28;3.55;;;;;;;21.15;70.94;99381.06;7226389;40;20244;31
2023/09/29 08:48:19;;;;;;;6.30;3.85;;;;;;;21.29;70.62;99385.31;7252327;40;20335;31
2023/09/29 08:59:03;;;;;;;7.20;3.88;;;;;;;21.51;69.17;99393.88;7291286;39;20255;31
2023/09/29 09:09:35;;;;;;;4.72;3.58;;;;;;;21.76;68.69;99396.47;7364334;39;20250;31
2023/09/29 09:15:08;;;;;;;5.40;4.20;;;;;;;21.90;68.60;99381.47;7358461;39;20521;31
2023/09/29 09:25:48;;;;;;;6.28;3.85;;;;;;;22.23;68.11;99386.44;7357603;39;20268;31
2023/09/29 09:36:33;;;;;;;6.80;3.60;;;;;;;22.56;67.66;99394.09;7323874;39;21020;31
2023/09/29 09:42:08;;;;;;;7.06;3.78;;;;;;;22.66;67.85;99397.94;7264461;39;20382;31
2023/09/29 09:47:40;;;;;;;4.57;3.62;;;;;;;22.88;67.59;99398.19;7260179;40;20257;31
2023/09/29 09:53:47;;;;;;;7.07;3.50;;;;;;;23.07;67.57;99393.38;7220629;40;20347;31
2023/09/29 09:59:09;;;;;;;5.37;3.37;;;;;;;23.28;66.83;99389.97;7176902;40;20262;31
2023/09/29 10:04:43;;;;;;;5.30;3.00;;;;;;;23.55;66.24;99401.25;6975444;40;20231;31
2023/09/29 10:10:18;;;;;;;5.03;3.00;;;;;;;23.80;64.61;99410.81;7162240;40;20251;31
2023/09/29 10:15:50;;;;;;;5.06;3.08;;;;;;;23.99;63.85;99402.34;7211278;40;20249;31
2023/09/29 10:21:25;;;;;;;5.34;3.04;;;;;;;24.21;64.35;99395.06;7201122;40;20230;31
2023/09/29 10:27:11;;;;;;;7.00;3.30;;;;;;;24.35;63.68;99381.78;7199804;40;20281;31
2023/09/29 10:37:55;;;;;;;3.78;3.00;;;;;;;24.52;61.37;99393.63;7265261;40;20255;31
2023/09/29 10:43:35;;;;;;;5.85;3.10;;;;;;;24.52;61.98;99391.72;7246373;40;20256;31
2023/09/29 10:49:06;;;;;;;5.50;3.37;;;;;;;24.52;61.45;99399.97;7247402;40;20726;31
2023/09/29 10:54:41;;;;;;;6.90;3.25;;;;;;;24.66;61.66;99384.72;7280999;40;20380;31
2023/09/29 11:00:17;;;;;;;3.36;2.54;;;;;;;24.70;60.27;99393.34;7246303;40;20276;31
2023/09/29 11:10:41;;;;;;;4.65;2.58;;;;;;;24.84;61.26;99394.62;7255544;40;20265;31
2023/09/29 11:16:16;;;;;;;5.82;2.85;;;;;;;24.93;59.52;99397.81;7247921;40;20252;31
2023/09/29 11:21:47;;;;;;;5.70;3.13;;;;;;;25.13;59.77;99387.91;7267206;39;21105;31
2023/09/29 11:27:19;;;;;;;5.40;3.10;;;;;;;25.55;59.06;99395.59;7302598;39;20248;31
2023/09/29 11:32:56;;;;;;;4.70;3.20;;;;;;;25.69;57.62;99377.53;7282876;40;21072;31
2023/09/29 11:38:33;;;;;;;4.40;2.45;;;;;;;25.83;56.61;99369.66;7256620;40;20319;31
2023/09/29 11:44:06;;;;;;;4.90;2.65;;;;;;;26.06;55.32;99368.50;7232474;40;20307;31
2023/09/29 11:49:42;;;;;;;5.30;2.60;;;;;;;26.21;56.53;99376.94;7201288;40;20341;31
2023/09/29 11:55:17;;;;;;;4.22;2.60;;;;;;;26.54;56.20;99382.19;7190127;40;20251;31
2023/09/29 12:00:52;;;;;;;4.47;2.62;;;;;;;26.54;55.33;99387.72;7191480;40;20345;31
2023/09/29 12:06:28;;;;;;;6.20;2.97;;;;;;;26.67;55.70;99395.56;7156752;40;20326;31
2023/09/29 12:12:03;;;;;;;5.37;2.58;;;;;;;26.33;56.76;99411.59;7150876;40;20255;31
2023/09/29 12:17:31;;;;;;;5.07;2.85;;;;;;;26.46;56.59;99410.31;5152850;50;20260;-69
2023/09/29 12:28:14;;;;;;;3.85;2.70;;;;;;;26.57;57.09;99425.06;7299175;39;21288;31
2023/09/29 12:39:04;;;;;;;4.10;3.05;;;;;;;26.37;57.80;99437.59;7293436;39;21451;31
2023/09/29 12:49:42;;;;;;;5.47;2.97;;;;;;;26.10;57.91;99449.78;7258443;39;20337;31
2023/09/29 12:55:15;;;;;;;8.52;3.83;;;;;;;25.79;58.16;99440.34;7318286;39;20249;31
2023/09/29 13:00:54;;;;;;;6.65;4.50;;;;;;;25.85;56.99;99448.41;7284245;39;20244;31
2023/09/29 13:06:31;;;;;;;10.20;5.15;;;;;;;25.50;56.71;99447.97;7272281;39;20281;31
2023/09/29 13:17:07;;;;;;;11.20;5.80;;;;;;;25.08;57.52;99453.22;7237791;40;21083;31
2023/09/29 13:22:44;;;;;;;12.67;6.43;;;;;;;24.85;57.87;99445.94;7243210;40;20241;31
2023/09/29 13:28:05;;;;;;;10.80;5.80;;;;;;;24.81;58.41;99449.47;7278579;39;20361;31
2023/09/29 13:33:38;;;;;;;14.35;6.53;;;;;;;24.68;59.40;99453.41;7303223;40;21072;31
2023/09/29 13:39:18;;;;;;;12.15;6.55;;;;;;;24.55;59.47;99451.84;7295698;39;20371;31
2023/09/29 13:44:55;;;;;;;13.43;6.93;;;;;;;24.47;59.14;99456.94;7284505;40;20418;31
2023/09/29 13:50:25;;;;;;;15.38;6.96;;;;;;;24.32;59.02;99471.28;7235752;40;20795;31
2023/09/29 13:56:04;;;;;;;13.75;7.37;;;;;;;24.20;60.31;99474.13;7199841;40;20257;31
2023/09/29 14:06:54;;;;;;;18.90;9.63;;;;;;;23.91;59.96;99472.44;7237336;40;20338;31
2023/09/29 14:12:36;;;;;;;17.65;9.55;;;;;;;23.75;60.86;99484.22;7274462;40;20345;31
2023/09/29 14:18:05;;;;;;;20.80;10.70;;;;;;;23.69;58.89;99512.75;7312316;39;20272;31
2023/09/29 14:23:40;;;;;;;27.65;13.25;;;;;;;23.63;58.24;99520.06;7278112;40;20311;31
2023/09/29 14:34:20;;;;;;;34.10;16.75;;;;;;;23.49;56.77;99526.06;7281635;40;21149;31
2023/09/29 14:39:53;;;;;;;31.92;15.95;;;;;;;23.43;57.10;99527.84;7303386;39;20321;31
2023/09/29 14:45:27;;;;;;;30.30;14.60;;;;;;;23.28;57.49;99528.34;7255922;40;20624;31
2023/09/29 14:56:05;;;;;;;30.90;15.40;;;;;;;23.12;56.74;99518.06;7196971;40;20228;31
2023/09/29 15:01:26;;;;;;;28.70;15.15;;;;;;;23.15;57.03;99519.50;7278434;39;20469;31
2023/09/29 15:06:44;;;;;;;28.95;13.52;;;;;;;23.14;57.98;99531.56;7324887;39;21483;31
2023/09/29 15:12:17;;;;;;;24.90;13.03;;;;;;;23.06;58.14;99530.03;7316943;39;20259;31
2023/09/29 15:17:56;;;;;;;23.15;11.53;;;;;;;23.01;58.19;99538.16;7257647;40;20241;31
2023/09/29 15:23:31;;;;;;;22.64;11.56;;;;;;;23.06;57.32;99543.78;7225801;40;20273;31
2023/09/29 15:34:12;;;;;;;17.95;9.48;;;;;;;22.99;56.96;99554.06;7212586;40;21133;31
2023/09/29 15:39:33;;;;;;;17.15;8.75;;;;;;;22.91;56.86;99558.00;7271655;39;20245;31
2023/09/29 15:44:54;;;;;;;16.20;8.02;;;;;;;22.87;56.75;99581.53;7287307;39;20275;31
2023/09/29 15:50:28;;;;;;;15.75;7.53;;;;;;;22.77;57.24;99595.00;7268563;39;20339;31
2023/09/29 15:56:03;;;;;;;13.50;7.18;;;;;;;22.80;56.96;99601.97;7269238;40;20252;31
2023/09/29 16:01:34;;;;;;;;;;;;;;;;;;;;;
2023/09/29 16:07:04;;;;;;;15.57;6.62;;;;;;;22.71;58.32;99619.87;7239237;40;20347;31
2023/09/29 16:12:37;;;;;;;12.80;6.20;;;;;;;22.54;58.36;99627.91;7297071;39;20529;31
2023/09/29 16:18:12;;;;;;;13.00;5.60;;;;;;;22.45;59.21;99634.81;7252663;40;20277;31
2023/09/29 16:24:04;;;;;;;13.45;5.65;;;;;;;22.41;59.88;99636.34;7237799;40;20245;31
2023/09/29 16:34:59;;;;;;;7.85;3.87;;;;;;;22.21;60.81;99633.84;7268712;40;20261;31
2023/09/29 16:40:20;;;;;;;7.45;3.58;;;;;;;22.16;61.29;99652.09;7090738;40;21348;31
2023/09/29 16:51:02;;;;;;;7.00;3.50;;;;;;;22.11;61.38;99663.78;7262642;39;20402;31
2023/09/29 17:01:40;;;;;;;8.57;3.90;;;;;;;22.05;62.23;99685.81;7229454;40;21221;31
2023/09/29 17:07:16;;;;;;;6.65;3.47;;;;;;;21.93;63.23;99699.47;7236286;40;20246;31
2023/09/29 17:12:54;;;;;;;6.72;3.17;;;;;;;21.92;62.85;99719.72;7262573;39;20240;31
2023/09/29 17:24:07;;;;;;;6.60;3.17;;;;;;;;;;7254979;39;20347;31
2023/09/29 17:29:42;;;;;;;7.53;3.12;;;;;;;21.93;63.84;99718.69;7203031;40;20402;31
2023/09/29 17:35:20;;;;;;;6.78;3.26;;;;;;;21.91;64.26;99715.28;7179224;40;20339;31
2023/09/29 17:40:57;;;;;;;7.12;3.30;;;;;;;21.98;64.04;99725.16;7189641;40;20242;31
2023/09/29 17:46:37;;;;;;;5.90;3.10;;;;;;;21.97;64.33;99725.41;7156719;40;20347;31
2023/09/29 17:52:28;;;;;;;7.72;3.30;;;;;;;21.88;65.03;99715.75;7174491;40;21314;31
2023/09/29 17:58:06;;;;;;;8.40;3.50;;;;;;;21.81;64.41;99712.22;7157339;40;20267;31
2023/09/29 18:03:42;;;;;;;5.12;3.17;;;;;;;21.69;65.32;99730.50;7183234;40;20367;31
2023/09/29 18:14:30;;;;;;;6.65;3.30;;;;;;;21.57;65.67;99736.72;7266254;39;20383;31
2023/09/29 18:20:07;;;;;;;6.87;3.37;;;;;;;21.53;66.35;99746.47;7306728;39;20255;31
2023/09/29 18:25:47;;;;;;;6.15;3.25;;;;;;;21.58;66.04;99751.28;7267709;40;20249;31
2023/09/29 18:31:21;;;;;;;9.05;3.90;;;;;;;21.61;66.42;99753.56;7187008;40;20253;31
2023/09/29 18:36:39;;;;;;;8.68;4.20;;;;;;;21.57;66.99;99761.41;7252233;40;20342;31
2023/09/29 18:42:14;;;;;;;6.30;3.50;;;;;;;21.52;66.87;99768.62;7248068;40;20298;31
2023/09/29 18:47:33;;;;;;;7.15;3.20;;;;;;;21.51;66.85;99780.66;7265732;40;20347;31
2023/09/29 18:52:52;;;;;;;6.45;3.50;;;;;;;21.48;66.96;99797.56;7243332;40;20247;31
2023/09/29 18:58:27;;;;;;;7.53;3.40;;;;;;;21.46;67.25;99802.44;7282272;40;20255;31
2023/09/29 19:04:01;;;;;;;7.50;3.90;;;;;;;21.50;66.82;99815.47;7266693;40;20241;31
2023/09/29 19:09:36;;;;;;;7.50;3.35;;;;;;;21.50;67.30;99823.72;7296000;39;20268;31
2023/09/29 19:20:19;;;;;;;6.65;3.33;;;;;;;21.28;68.13;99852.56;7317944;39;21707;31
2023/09/29 19:25:54;;;;;;;6.18;3.10;;;;;;;21.28;68.50;99847.06;7276700;40;20241;31
2023/09/29 19:31:29;;;;;;;7.85;3.65;;;;;;;21.24;68.96;99850.50;7261091;40;20274;31
2023/09/29 19:42:10;;;;;;;6.00;3.37;;;;;;;21.14;69.18;99861.94;7224002;40;21260;31
2023/09/29 19:47:45;;;;;;;6.28;3.42;;;;;;;21.09;69.46;99864.44;7288318;39;20293;31
2023/09/29 19:53:05;;;;;;;5.40;2.80;;;;;;;21.02;69.85;99858.13;7307155;39;20303;31
2023/09/29 19:58:43;;;;;;;5.50;3.10;;;;;;;20.90;70.47;99863.47;7319645;39;20292;31
2023/09/29 20:04:16;;;;;;;5.60;3.00;;;;;;;20.83;70.77;99856.34;7217826;40;20390;31
2023/09/29 20:14:56;;;;;;;4.80;2.70;;;;;;;20.71;70.84;99863.56;7259565;40;20270;31
2023/09/29 20:25:32;;;;;;;5.70;2.85;;;;;;;20.66;70.42;99861.47;7291162;39;20301;31
2023/09/29 20:31:07;;;;;;;6.15;2.80;;;;;;;20.67;70.57;99861.22;7277886;40;20266;31
2023/09/29 20:41:31;;;;;;;5.15;2.70;;;;;;;20.56;70.67;99872.88;7238952;40;20261;31
2023/09/29 20:52:12;;;;;;;6.00;2.72;;;;;;;20.57;70.38;99860.88;7348988;39;20379;31
2023/09/29 20:57:18;;;;;;;3.37;2.03;;;;;;;20.44;70.92;99884.69;7320684;39;20350;31
2023/09/29 21:02:51;;;;;;;4.00;2.20;;;;;;;20.40;71.67;99884.28;7340876;39;20265;31
2023/09/29 21:08:29;;;;;;;3.78;1.95;;;;;;;20.36;70.93;99893.16;7300128;40;20244;31
2023/09/29 21:14:07;;;;;;;5.35;2.28;;;;;;;20.38;71.95;99889.13;7266036;40;20257;31
2023/09/29 21:19:39;;;;;;;2.72;1.92;;;;;;;20.45;71.27;99891.84;7291331;39;20458;31
2023/09/29 21:25:11;;;;;;;4.00;2.10;;;;;;;20.40;71.35;99895.25;7270034;40;20241;31
2023/09/29 21:35:53;;;;;;;5.95;2.20;;;;;;;20.43;70.68;99904.91;7291049;39;20237;31
2023/09/29 21:41:26;;;;;;;2.97;1.95;;;;;;;20.42;71.40;99909.53;7298822;39;20256;31
2023/09/29 21:47:01;;;;;;;5.25;1.80;;;;;;;20.39;71.70;99917.34;7297675;39;20260;31
2023/09/29 21:52:36;;;;;;;2.73;1.43;;;;;;;20.31;71.33;99923.91;7258878;40;20255;31
2023/09/29 21:58:12;;;;;;;2.53;1.70;;;;;;;20.33;71.43;99938.19;7259342;40;20446;31
2023/09/29 22:03:49;;;;;;;2.50;1.65;;;;;;;20.37;71.29;99950.41;7218072;40;20377;31
2023/09/29 22:09:06;;;;;;;4.97;1.70;;;;;;;20.42;70.95;99955.25;7175706;40;20278;31
2023/09/29 22:14:44;;;;;;;3.25;1.80;;;;;;;20.38;71.92;99943.03;7234308;40;20300;31
2023/09/29 22:20:20;;;;;;;2.45;1.70;;;;;;;20.37;70.99;99947.69;7223288;40;20269;31
2023/09/29 22:25:39;;;;;;;2.30;1.50;;;;;;;20.40;71.27;99949.16;7252331;40;21307;31
2023/09/29 22:31:16;;;;;;;2.47;1.42;;;;;;;20.27;72.42;99960.09;7252341;40;20460;31
2023/09/29 22:36:51;;;;;;;2.50;1.60;;;;;;;20.14;72.65;99963.69;7204018;40;20242;31
2023/09/29 22:42:30;;;;;;;2.78;1.60;;;;;;;20.17;71.47;99958.62;7159540;40;20247;31
2023/09/29 22:48:04;;;;;;;2.67;1.52;;;;;;;20.08;72.29;99965.34;7145688;40;20253;31
2023/09/29 22:53:26;;;;;;;3.45;1.62;;;;;;;19.99;72.01;99971.22;7183016;40;20246;31
2023/09/29 22:58:59;;;;;;;3.03;1.60;;;;;;;20.03;72.72;99987.03;7187984;40;20285;31
2023/09/29 23:04:32;;;;;;;4.20;1.75;;;;;;;19.99;73.19;99987.66;7035583;40;20237;31
2023/09/29 23:10:08;;;;;;;1.80;1.40;;;;;;;20.01;73.32;99980.91;7255065;39;20547;31
2023/09/29 23:20:51;;;;;;;2.97;1.53;;;;;;;20.03;72.90;99977.97;7322454;39;20247;31
2023/09/29 23:26:28;;;;;;;2.37;1.65;;;;;;;20.03;71.73;99991.66;7323462;39;20255;31
2023/09/29 23:32:02;;;;;;;3.50;1.70;;;;;;;19.95;72.35;99997.31;7279285;40;20240;31
2023/09/29 23:37:37;;;;;;;1.75;1.30;;;;;;;19.86;72.08;99993.09;7278408;40;20281;31
2023/09/29 23:42:57;;;;;;;3.20;1.40;;;;;;;19.78;72.68;100005.06;7242277;40;20240;31
2023/09/29 23:48:32;;;;;;;3.80;1.50;;;;;;;19.66;73.67;100013.00;7258509;40;20230;31
2023/09/29 23:54:08;;;;;;;3.20;1.40;;;;;;;19.49;73.37;100011.69;7213193;40;20252;31
2023/09/29 23:59:32;;;;;;;1.58;1.27;;;;;;;19.47;72.74;100013.81;7227277;40;20241;31
